Time;durP1;ratioP1;P1;durP2;ratioP2;P2;SDS_P1;SDS_P2;PMS_P1;PMS_P2;Temp;Humidity;BMP_temperature;BMP_pressure;BME280_temperature;BME280_humidity;BME280_pressure;Samples;Min_cycle;Max_cycle;Signal;HPM_P1;HPM_P2
2022/03/20 00:01:54;;;;;;;8.40;5.30;;;;;;;-4.55;57.34;101515.84;104831;1273;74829;-27
2022/03/20 00:04:25;;;;;;;13.80;6.50;;;;;;;-4.69;57.18;101520.46;104631;1273;72898;-30
2022/03/20 00:06:56;;;;;;;8.80;4.50;;;;;;;-4.90;58.69;101518.66;104771;1273;61164;-31
2022/03/20 00:09:25;;;;;;;9.50;4.30;;;;;;;-5.14;61.00;101517.62;104744;1273;61099;-29
2022/03/20 00:11:55;;;;;;;9.50;4.50;;;;;;;-5.36;61.01;101513.24;104762;1273;74187;-29
2022/03/20 00:14:24;;;;;;;11.30;3.60;;;;;;;-5.50;59.99;101515.27;104921;1273;75601;-29
2022/03/20 00:16:55;;;;;;;8.30;4.20;;;;;;;-5.63;62.27;101517.67;105117;1273;70870;-31
2022/03/20 00:19:25;;;;;;;10.90;4.60;;;;;;;-5.77;63.09;101515.48;104764;1273;61135;-31
2022/03/20 00:21:55;;;;;;;10.70;4.50;;;;;;;-5.92;63.66;101509.98;104882;1274;61052;-31
2022/03/20 00:24:25;;;;;;;8.30;4.80;;;;;;;-6.08;62.52;101507.91;104694;1273;73153;-29
2022/03/20 00:26:57;;;;;;;11.60;5.30;;;;;;;-6.23;63.23;101506.17;104768;1272;75348;-29
2022/03/20 00:29:28;;;;;;;6.40;4.10;;;;;;;-6.40;65.84;101504.88;104909;1273;72929;-29
2022/03/20 00:31:58;;;;;;;8.80;4.50;;;;;;;-6.52;66.57;101504.55;104760;1273;61178;-29
2022/03/20 00:34:28;;;;;;;8.90;4.30;;;;;;;-6.57;66.67;101502.88;104799;1273;61132;-29
2022/03/20 00:36:58;;;;;;;6.80;3.80;;;;;;;-6.61;66.18;101502.27;105140;1273;72785;-28
2022/03/20 00:39:28;;;;;;;9.80;4.30;;;;;;;-6.62;68.20;101501.58;104853;1273;75751;-29
2022/03/20 00:41:58;;;;;;;8.80;4.20;;;;;;;-6.64;69.92;101503.69;104648;1273;71969;-29
2022/03/20 00:44:28;;;;;;;8.10;4.30;;;;;;;-6.68;70.40;101498.17;104722;1273;61165;-29
2022/03/20 00:46:58;;;;;;;10.10;4.60;;;;;;;-6.72;71.50;101498.23;104776;1273;61151;-29
2022/03/20 00:49:28;;;;;;;9.00;4.70;;;;;;;-6.74;72.12;101497.35;104663;1273;75663;-29
2022/03/20 00:51:58;;;;;;;13.40;5.60;;;;;;;-6.77;72.46;101495.58;104705;1273;74440;-29
2022/03/20 00:54:28;;;;;;;8.40;5.10;;;;;;;-6.21;73.20;101494.73;104787;1273;71670;-29
2022/03/20 00:56:58;;;;;;;15.90;5.70;;;;;;;-5.17;70.95;101496.38;104749;1271;61057;-29
2022/03/20 00:59:28;;;;;;;11.90;5.30;;;;;;;-4.75;69.31;101501.00;104752;1272;61173;-29
2022/03/20 01:01:58;;;;;;;12.10;5.80;;;;;;;-4.78;68.21;101498.92;104724;1273;72996;-29
2022/03/20 01:04:29;;;;;;;8.20;4.80;;;;;;;-4.92;67.92;101496.42;104631;1273;73393;-29
2022/03/20 01:07:07;;;;;;;10.60;4.70;;;;;;;-5.08;68.12;101496.59;104728;1274;71907;-29
2022/03/20 01:09:37;;;;;;;7.70;4.00;;;;;;;-5.23;67.96;101495.23;104785;1274;60984;-28
2022/03/20 01:12:08;;;;;;;9.90;3.40;;;;;;;-5.38;68.64;101497.45;104941;1272;61147;-29
2022/03/20 01:14:38;;;;;;;8.10;4.00;;;;;;;-5.50;68.67;101496.81;104721;1273;74104;-29
2022/03/20 01:17:08;;;;;;;11.00;4.20;;;;;;;-5.64;68.41;101493.09;104829;1273;74524;-28
2022/03/20 01:19:38;;;;;;;7.00;4.10;;;;;;;-5.78;68.35;101493.09;104790;1273;70439;-29
2022/03/20 01:22:08;;;;;;;8.30;4.70;;;;;;;-5.89;69.25;101488.24;104786;1272;61148;-29
2022/03/20 01:24:39;;;;;;;9.60;4.60;;;;;;;-6.01;68.83;101480.52;104749;1273;61140;-29
2022/03/20 01:27:09;;;;;;;9.90;5.00;;;;;;;-6.12;69.34;101483.80;104753;1273;72803;-29
2022/03/20 01:29:40;;;;;;;11.20;5.00;;;;;;;-6.23;69.55;101483.36;104699;1273;75199;-29
2022/03/20 01:32:10;;;;;;;9.00;4.50;;;;;;;-6.36;69.15;101482.17;104793;1273;72966;-29
2022/03/20 01:34:40;;;;;;;8.50;4.80;;;;;;;-6.43;70.30;101484.02;104761;1273;61035;-29
2022/03/20 01:37:10;;;;;;;9.70;4.60;;;;;;;-6.48;70.97;101486.75;104773;1273;61818;-29
2022/03/20 01:39:39;;;;;;;8.90;4.90;;;;;;;-6.59;69.71;101485.27;104925;1273;73974;-29
2022/03/20 01:42:09;;;;;;;9.70;4.80;;;;;;;-6.71;69.45;101482.55;104826;1273;74542;-29
2022/03/20 01:44:39;;;;;;;11.00;5.10;;;;;;;-6.77;70.80;101489.15;105062;1273;72721;-29
2022/03/20 01:47:14;;;;;;;8.40;4.70;;;;;;;-6.83;70.64;101487.62;104846;1273;61054;-29
2022/03/20 01:49:44;;;;;;;9.50;4.20;;;;;;;-6.49;69.77;101487.39;104784;1273;61080;-28
2022/03/20 01:52:15;;;;;;;15.70;6.50;;;;;;;-5.33;67.59;101492.27;104656;1273;73511;-29
2022/03/20 01:54:45;;;;;;;16.20;7.40;;;;;;;-4.62;65.21;101498.55;104837;1273;74527;-28
2022/03/20 01:57:16;;;;;;;17.40;7.40;;;;;;;-4.52;63.99;101496.06;104809;1272;71588;-28
2022/03/20 01:59:47;;;;;;;15.10;6.60;;;;;;;-4.65;64.00;101496.98;104820;1273;61148;-29
2022/03/20 02:02:16;;;;;;;14.10;6.20;;;;;;;-4.86;64.76;101499.27;104656;1273;61933;-29
2022/03/20 02:04:46;;;;;;;8.00;4.00;;;;;;;-5.14;64.91;101501.52;104755;1271;74111;-29
2022/03/20 02:07:16;;;;;;;9.50;4.90;;;;;;;-5.38;65.67;101492.69;104784;1273;72417;-28
2022/03/20 02:09:46;;;;;;;8.40;4.00;;;;;;;-5.53;65.53;101493.19;104608;1273;72692;-29
2022/03/20 02:12:16;;;;;;;17.50;5.30;;;;;;;-5.69;66.50;101496.02;104725;1273;61109;-29
2022/03/20 02:14:45;;;;;;;11.00;4.90;;;;;;;-5.94;67.77;101498.45;104815;1273;61276;-29
2022/03/20 02:17:15;;;;;;;9.90;5.40;;;;;;;-6.13;68.37;101499.50;104987;1273;73883;-29
2022/03/20 02:19:51;;;;;;;11.10;5.60;;;;;;;-6.28;68.54;101498.45;105115;1273;73644;-28
2022/03/20 02:22:21;;;;;;;10.00;5.10;;;;;;;-6.38;69.41;101495.30;104855;1273;73013;-29
2022/03/20 02:24:51;;;;;;;9.90;5.00;;;;;;;-6.49;70.09;101499.56;104842;1273;61270;-28
2022/03/20 02:27:25;;;;;;;11.90;5.30;;;;;;;-6.62;69.84;101494.98;104701;1274;61145;-29
2022/03/20 02:30:03;;;;;;;9.20;4.80;;;;;;;-6.73;68.82;101492.64;104790;1273;72783;-28
2022/03/20 02:32:32;;;;;;;11.10;5.40;;;;;;;-6.81;69.04;101491.55;104787;1273;74446;-28
2022/03/20 02:35:05;;;;;;;12.10;5.90;;;;;;;-6.87;70.08;101493.24;104727;1273;72963;-29
2022/03/20 02:37:34;;;;;;;11.50;5.10;;;;;;;-6.93;70.49;101492.38;104764;1273;61102;-29
2022/03/20 02:40:05;;;;;;;5.40;3.50;;;;;;;-6.68;70.92;101495.64;104826;1273;61064;-31
2022/03/20 02:42:35;;;;;;;15.70;6.80;;;;;;;-5.60;70.04;101503.50;104741;1273;71476;-29
2022/03/20 02:45:10;;;;;;;11.10;5.80;;;;;;;-4.92;67.56;101502.52;105145;1270;74557;-29
2022/03/20 02:47:42;;;;;;;12.60;5.00;;;;;;;-4.85;65.01;101504.70;104970;1273;72915;-29
2022/03/20 02:50:19;;;;;;;11.60;6.70;;;;;;;-5.01;64.90;101501.98;104770;1273;61145;-29
2022/03/20 02:53:02;;;;;;;14.40;6.30;;;;;;;-5.23;65.88;101497.43;105092;1273;61038;-29
2022/03/20 02:55:33;;;;;;;9.20;4.60;;;;;;;-5.50;66.33;101493.59;105098;1273;73914;-29
2022/03/20 02:58:04;;;;;;;11.00;4.00;;;;;;;-5.76;67.29;101495.70;104806;1273;73278;-29
2022/03/20 03:00:34;;;;;;;10.90;4.40;;;;;;;-5.99;68.16;101496.64;104846;1273;70584;-29
2022/03/20 03:03:14;;;;;;;6.90;3.80;;;;;;;-6.22;68.21;101496.90;104703;1273;61052;-29
2022/03/20 03:05:44;;;;;;;6.70;3.70;;;;;;;-6.41;68.51;101495.05;104736;1273;61077;-29
2022/03/20 03:11:04;;;;;;;8.70;4.60;;;;;;;-6.72;69.89;101494.85;104857;1273;74323;-29
2022/03/20 03:13:39;;;;;;;6.20;4.00;;;;;;;-6.82;70.11;101493.40;104845;1273;70560;-29
2022/03/20 03:16:13;;;;;;;9.50;4.90;;;;;;;-6.91;69.89;101489.92;105042;1273;61152;-29
2022/03/20 03:18:44;;;;;;;13.80;4.90;;;;;;;-7.00;70.27;101483.41;104763;1273;61124;-29
2022/03/20 03:21:15;;;;;;;15.60;5.20;;;;;;;-7.07;70.33;101481.52;104735;1273;73772;-29
2022/03/20 03:23:45;;;;;;;6.40;4.40;;;;;;;-6.67;70.90;101480.96;104721;1273;73697;-29
2022/03/20 03:26:15;;;;;;;11.80;5.50;;;;;;;-5.63;68.66;101474.32;104810;1272;70769;-29
2022/03/20 03:28:45;;;;;;;12.80;6.30;;;;;;;-5.15;66.72;101472.53;104801;1273;61143;-29
2022/03/20 03:31:14;;;;;;;12.10;6.50;;;;;;;-5.18;65.60;101471.46;104915;1273;61029;-29
2022/03/20 03:36:37;;;;;;;13.00;6.00;;;;;;;-5.68;65.96;101472.16;104762;1273;74739;-29
2022/03/20 03:39:07;;;;;;;8.10;4.00;;;;;;;-5.90;66.63;101470.11;104655;1273;72958;-28
2022/03/20 03:41:37;;;;;;;11.90;3.90;;;;;;;-6.14;67.07;101469.04;104779;1273;61136;-29
2022/03/20 03:44:07;;;;;;;9.30;4.10;;;;;;;-6.36;68.26;101463.88;104775;1273;61057;-29
2022/03/20 03:46:37;;;;;;;9.50;4.50;;;;;;;-6.55;68.60;101468.48;104963;1273;73969;-29
2022/03/20 03:49:09;;;;;;;8.10;4.70;;;;;;;-6.68;69.01;101467.42;104822;1273;74688;-29
2022/03/20 03:51:38;;;;;;;7.40;4.20;;;;;;;-6.80;69.11;101466.76;104788;1273;72847;-28
2022/03/20 03:54:10;;;;;;;11.70;5.00;;;;;;;-6.91;69.14;101464.09;104638;1273;62796;-30
2022/03/20 03:56:42;;;;;;;12.10;5.30;;;;;;;-7.01;68.97;101466.98;104813;1273;61390;-29
2022/03/20 03:59:12;;;;;;;10.00;5.40;;;;;;;-7.10;69.45;101470.13;104794;1273;74254;-30
2022/03/20 04:01:43;;;;;;;8.90;4.00;;;;;;;-7.08;69.74;101474.05;104774;1273;74867;-29
2022/03/20 04:04:14;;;;;;;15.60;6.90;;;;;;;-6.29;69.17;101474.38;104671;1273;72965;-29
2022/03/20 04:06:58;;;;;;;15.20;5.70;;;;;;;-5.43;66.62;101474.79;104809;1273;61158;-29
2022/03/20 04:09:28;;;;;;;17.10;8.40;;;;;;;-5.32;65.72;101473.86;104820;1273;61042;-30
2022/03/20 04:11:57;;;;;;;12.00;6.70;;;;;;;-5.45;66.43;101466.61;104665;1273;72838;-29
2022/03/20 04:14:29;;;;;;;15.20;6.40;;;;;;;-5.66;66.47;101465.29;104766;1273;74596;-29
2022/03/20 04:16:59;;;;;;;7.90;4.30;;;;;;;-5.87;66.43;101466.13;104801;1273;72943;-29
2022/03/20 04:19:29;;;;;;;9.50;5.00;;;;;;;-6.05;66.92;101470.11;104630;1272;61072;-29
2022/03/20 04:22:01;;;;;;;8.70;5.10;;;;;;;-6.22;67.26;101470.36;104780;1273;61217;-29
2022/03/20 04:24:31;;;;;;;7.20;4.80;;;;;;;-6.34;67.92;101473.94;104829;1273;74556;-29
2022/03/20 04:27:00;;;;;;;11.20;5.20;;;;;;;-6.42;68.51;101473.37;104881;1272;73243;-29
2022/03/20 04:29:32;;;;;;;7.70;4.80;;;;;;;-6.50;68.29;101476.02;105118;1273;72716;-28
2022/03/20 04:32:01;;;;;;;10.80;6.00;;;;;;;-6.58;68.20;101471.93;104769;1273;61151;-29
2022/03/20 04:34:31;;;;;;;15.80;5.50;;;;;;;-6.63;68.64;101478.90;104765;1272;61132;-28
2022/03/20 04:37:05;;;;;;;10.60;5.50;;;;;;;-6.66;69.04;101476.95;104860;1273;74096;-29
2022/03/20 04:39:36;;;;;;;9.30;5.90;;;;;;;-6.67;69.49;101478.27;104629;1273;72370;-29
2022/03/20 04:42:06;;;;;;;9.40;5.40;;;;;;;-6.62;69.77;101477.38;104707;1273;72858;-28
2022/03/20 04:44:39;;;;;;;11.90;6.30;;;;;;;-6.54;69.89;101479.65;103874;1273;1003025;-28
2022/03/20 04:58:29;;;;;;;12.40;6.60;;;;;;;-6.39;69.41;101482.94;104740;1274;61173;-29
2022/03/20 04:58:31;;;;;;;13.70;7.70;;;;;;;-5.75;70.00;101486.73;104939;1273;61054;-28
2022/03/20 05:01:00;;;;;;;19.10;9.70;;;;;;;-5.61;70.47;101486.41;104721;1273;61133;-29
2022/03/20 05:03:32;;;;;;;12.70;7.80;;;;;;;-5.44;70.70;101487.98;104713;1273;75220;-28
2022/03/20 05:06:05;;;;;;;20.50;10.20;;;;;;;-5.27;70.71;101493.13;104770;1273;74558;-29
2022/03/20 05:08:37;;;;;;;21.40;11.40;;;;;;;-5.10;70.37;101498.75;104941;1273;72715;-28
2022/03/20 05:13:58;;;;;;;21.20;10.60;;;;;;;-4.59;68.35;101507.96;104555;1273;61028;-30
2022/03/20 05:16:29;;;;;;;24.30;11.80;;;;;;;-4.34;68.27;101511.34;104854;1273;74105;-30
2022/03/20 05:18:58;;;;;;;21.70;13.10;;;;;;;-4.11;67.06;101504.46;104799;1272;74502;-30
2022/03/20 05:21:30;;;;;;;25.10;12.70;;;;;;;-3.88;66.29;101503.00;104772;1273;73005;-30
2022/03/20 05:24:00;;;;;;;28.10;13.30;;;;;;;-3.69;64.61;101502.14;104791;1273;61027;-30
2022/03/20 05:26:32;;;;;;;31.90;13.40;;;;;;;-3.49;62.37;101494.83;104782;1273;61027;-29
2022/03/20 05:29:02;;;;;;;22.50;8.80;;;;;;;-3.33;62.93;101497.44;104646;1273;75882;-29
2022/03/20 05:31:33;;;;;;;22.40;12.10;;;;;;;-3.27;61.85;101502.45;104778;1273;73332;-30
2022/03/20 05:34:03;;;;;;;28.90;12.50;;;;;;;-3.14;62.47;101504.69;105083;1273;71585;-31
2022/03/20 05:36:34;;;;;;;22.80;11.10;;;;;;;-2.98;62.84;101505.06;104850;1273;61139;-30
2022/03/20 05:39:03;;;;;;;16.90;8.80;;;;;;;-2.93;61.78;101509.91;104667;1273;61232;-28
2022/03/20 05:41:51;;;;;;;15.60;9.40;;;;;;;-2.83;61.35;101509.02;104799;1273;74208;-29
2022/03/20 05:44:24;;;;;;;23.70;11.00;;;;;;;-2.71;60.79;101514.98;104810;1273;73766;-29
2022/03/20 05:46:54;;;;;;;24.90;10.20;;;;;;;-2.64;60.01;101515.05;104673;1273;71677;-28
2022/03/20 05:49:24;;;;;;;22.00;10.50;;;;;;;-2.62;58.24;101512.16;104731;1273;61105;-30
2022/03/20 05:51:55;;;;;;;19.90;8.00;;;;;;;-2.46;58.58;101517.14;104673;1273;61302;-30
2022/03/20 05:54:24;;;;;;;16.80;9.00;;;;;;;-2.37;58.01;101512.98;104816;1273;74182;-30
2022/03/20 05:59:44;;;;;;;22.00;10.60;;;;;;;-2.07;57.69;101513.98;105101;1273;71692;-28
2022/03/20 06:02:15;;;;;;;25.40;10.30;;;;;;;-1.96;56.85;101518.36;104986;1271;61157;-30
2022/03/20 06:04:45;;;;;;;17.30;9.70;;;;;;;-1.81;57.41;101521.06;104864;1271;61035;-30
2022/03/20 06:07:15;;;;;;;16.40;9.00;;;;;;;-1.72;56.92;101523.17;105123;1274;71897;-28
2022/03/20 06:09:45;;;;;;;23.60;11.40;;;;;;;-1.60;57.00;101524.13;104874;1274;74640;-28
2022/03/20 06:12:14;;;;;;;36.80;13.30;;;;;;;-1.47;57.08;101523.20;104822;1271;72871;-28
2022/03/20 06:14:57;;;;;;;24.30;10.50;;;;;;;-1.35;55.21;101525.36;104786;1271;61112;-28
2022/03/20 06:17:27;;;;;;;28.60;12.50;;;;;;;-1.13;56.40;101522.79;104803;1271;61724;-28
2022/03/20 06:19:59;;;;;;;21.70;10.70;;;;;;;-0.95;54.63;101530.92;104828;1271;74596;-29
2022/03/20 06:22:29;;;;;;;25.40;12.40;;;;;;;-0.78;51.70;101532.20;104906;1274;73159;-28
2022/03/20 06:24:59;;;;;;;27.50;11.60;;;;;;;-0.66;52.43;101532.27;104930;1271;73954;-28
2022/03/20 06:27:41;;;;;;;16.30;6.50;;;;;;;-0.57;51.64;101533.33;104873;1272;61175;-29
2022/03/20 06:30:13;;;;;;;21.20;11.10;;;;;;;-0.47;52.28;101529.11;104912;1274;61154;-28
2022/03/20 06:32:43;;;;;;;28.00;15.70;;;;;;;-0.34;52.93;101531.02;104841;1274;74146;-28
2022/03/20 06:35:13;;;;;;;21.90;10.30;;;;;;;-0.23;51.12;101528.50;104643;1274;72701;-28
2022/03/20 06:37:46;;;;;;;18.20;7.80;;;;;;;-0.13;50.73;101530.23;104659;1274;72811;-29
2022/03/20 06:40:15;;;;;;;13.80;7.80;;;;;;;0.10;51.71;101532.85;105021;1273;61064;-28
2022/03/20 06:42:45;;;;;;;20.00;11.20;;;;;;;0.30;48.82;101534.24;104947;1272;61154;-28
2022/03/20 06:45:18;;;;;;;20.00;10.20;;;;;;;0.51;48.49;101529.63;105131;1274;75462;-29
2022/03/20 06:47:48;;;;;;;20.80;10.90;;;;;;;0.68;47.01;101528.27;105084;1274;74499;-28
2022/03/20 06:50:18;;;;;;;14.50;8.00;;;;;;;0.90;48.00;101527.05;105014;1274;71078;-28
2022/03/20 06:52:49;;;;;;;17.70;8.90;;;;;;;1.07;47.67;101528.38;104775;1274;61150;-28
2022/03/20 06:55:19;;;;;;;18.90;8.60;;;;;;;1.29;47.44;101529.35;104734;1274;61062;-28
2022/03/20 06:57:50;;;;;;;16.90;7.70;;;;;;;1.51;46.40;101532.00;104902;1274;73830;-28
2022/03/20 07:00:20;;;;;;;16.00;8.60;;;;;;;1.79;46.41;101527.08;104713;1274;76003;-28
2022/03/20 07:03:06;;;;;;;15.50;7.90;;;;;;;1.98;46.76;101525.60;104776;1273;72855;-28
2022/03/20 07:05:36;;;;;;;30.80;10.00;;;;;;;2.21;44.73;101524.94;104817;1273;61148;-28
2022/03/20 07:08:09;;;;;;;15.50;9.30;;;;;;;2.45;43.78;101522.19;104762;1273;61052;-30
2022/03/20 07:10:42;;;;;;;16.00;8.50;;;;;;;2.71;43.66;101525.23;104624;1273;74457;-29
2022/03/20 07:16:01;;;;;;;12.70;8.00;;;;;;;3.12;42.66;101531.86;105026;1273;73148;-29
2022/03/20 07:18:33;;;;;;;17.60;9.10;;;;;;;3.39;41.88;101532.77;104670;1273;61097;-28
2022/03/20 07:21:04;;;;;;;11.90;6.10;;;;;;;3.54;41.09;101533.61;104787;1273;61049;-28
2022/03/20 07:23:33;;;;;;;12.80;7.20;;;;;;;3.75;40.57;101530.26;104663;1273;74951;-29
2022/03/20 07:31:41;;;;;;;12.90;6.40;;;;;;;4.22;39.24;101529.59;105126;1273;61010;-28
2022/03/20 07:34:12;;;;;;;11.80;5.50;;;;;;;4.26;38.51;101528.67;105121;1273;61015;-29
2022/03/20 07:36:42;;;;;;;15.50;7.40;;;;;;;4.38;38.47;101532.78;104906;1273;73821;-29
2022/03/20 07:39:12;;;;;;;13.10;6.80;;;;;;;4.55;37.62;101533.03;104868;1273;75101;-28
2022/03/20 07:41:43;;;;;;;11.70;6.40;;;;;;;4.76;36.99;101532.85;104795;1273;70680;-27
2022/03/20 07:44:12;;;;;;;14.30;7.10;;;;;;;4.58;36.32;101532.28;104710;1273;61084;-28
2022/03/20 07:46:43;;;;;;;10.40;7.00;;;;;;;4.93;36.40;101532.20;105030;1273;61162;-28
2022/03/20 07:49:13;;;;;;;14.50;6.70;;;;;;;4.77;35.20;101530.25;104803;1273;72948;-27
2022/03/20 07:51:46;;;;;;;13.50;7.30;;;;;;;4.82;35.23;101528.27;104936;1273;73214;-29
2022/03/20 07:54:16;;;;;;;10.40;6.50;;;;;;;4.54;35.36;101529.95;105118;1273;71523;-28
2022/03/20 07:56:47;;;;;;;11.80;6.60;;;;;;;4.56;35.45;101524.06;104869;1273;61031;-28
2022/03/20 07:59:17;;;;;;;12.90;7.60;;;;;;;4.75;35.62;101529.41;104699;1273;61173;-28
2022/03/20 08:01:47;;;;;;;12.40;7.10;;;;;;;5.12;35.39;101524.80;104747;1274;74384;-28
2022/03/20 08:04:19;;;;;;;12.60;7.30;;;;;;;5.08;35.33;101527.61;104823;1271;74345;-28
2022/03/20 08:06:51;;;;;;;9.60;5.30;;;;;;;5.25;35.26;101527.29;104764;1274;71631;-28
2022/03/20 08:09:27;;;;;;;14.90;6.30;;;;;;;4.94;34.61;101524.44;104766;1274;61080;-28
2022/03/20 08:12:02;;;;;;;10.10;6.10;;;;;;;5.29;34.63;101526.36;105010;1274;61057;-28
2022/03/20 08:14:54;;;;;;;9.10;6.00;;;;;;;5.18;34.74;101523.64;104649;1272;486191;-28
2022/03/20 08:17:44;;;;;;;10.20;5.50;;;;;;;5.34;33.66;101526.60;105086;1274;73280;-28
2022/03/20 08:20:14;;;;;;;9.10;5.30;;;;;;;5.42;33.52;101526.43;104898;1274;72997;-28
2022/03/20 08:22:44;;;;;;;9.40;4.70;;;;;;;5.61;33.50;101533.65;105093;1274;61070;-27
2022/03/20 08:25:14;;;;;;;11.50;6.20;;;;;;;5.94;32.81;101534.14;104980;1274;60963;-27
2022/03/20 08:28:07;;;;;;;9.80;5.60;;;;;;;5.90;32.54;101536.65;104779;1274;73988;-28
2022/03/20 08:30:40;;;;;;;8.60;5.40;;;;;;;6.14;32.21;101528.03;104802;1274;73563;-27
2022/03/20 08:33:10;;;;;;;8.90;5.40;;;;;;;6.21;32.40;101522.18;104643;1274;72841;-27
2022/03/20 08:35:40;;;;;;;9.90;6.60;;;;;;;6.24;32.76;101521.23;104805;1271;61485;-28
2022/03/20 08:38:12;;;;;;;10.80;5.30;;;;;;;6.57;32.22;101515.23;104852;1271;61131;-28
2022/03/20 08:40:42;;;;;;;21.50;10.40;;;;;;;7.10;31.33;101513.70;105113;1274;74235;-27
2022/03/20 08:43:15;;;;;;;26.20;8.10;;;;;;;6.61;31.00;101508.59;104816;1271;74742;-27
2022/03/20 08:45:46;;;;;;;12.50;5.60;;;;;;;6.55;31.63;101508.40;104758;1274;72942;-27
2022/03/20 08:48:20;;;;;;;24.60;9.60;;;;;;;6.73;30.43;101509.15;105117;1274;61198;-29
2022/03/20 08:50:53;;;;;;;18.10;7.20;;;;;;;7.04;30.11;101507.48;104786;1274;61121;-28
2022/03/20 08:53:29;;;;;;;16.50;7.50;;;;;;;6.89;30.13;101497.52;105123;1272;74130;-28
2022/03/20 08:56:08;;;;;;;8.90;5.30;;;;;;;6.64;30.37;101488.65;104655;1274;74553;-28
2022/03/20 08:58:38;;;;;;;8.30;5.20;;;;;;;6.24;30.48;101494.48;104814;1273;73028;-27
2022/03/20 09:01:09;;;;;;;11.10;5.50;;;;;;;6.22;30.67;101495.75;104737;1274;61164;-28
2022/03/20 09:03:39;;;;;;;13.30;7.30;;;;;;;6.81;30.40;101490.81;104758;1274;61027;-27
2022/03/20 09:06:10;;;;;;;9.30;5.80;;;;;;;6.93;30.49;101489.48;104846;1271;72965;-28
2022/03/20 09:08:41;;;;;;;17.40;8.30;;;;;;;6.89;30.31;101490.11;104894;1271;73690;-28
2022/03/20 09:11:33;;;;;;;17.10;9.30;;;;;;;7.12;30.55;101491.02;105073;1272;72871;-28
2022/03/20 09:14:03;;;;;;;23.50;11.80;;;;;;;7.04;30.06;101486.74;104852;1271;61013;-28
2022/03/20 09:19:23;;;;;;;8.20;5.30;;;;;;;7.23;29.31;101492.27;104810;1272;72462;-28
2022/03/20 09:21:54;;;;;;;8.90;5.30;;;;;;;7.55;29.26;101490.84;104868;1272;74580;-27
2022/03/20 09:24:25;;;;;;;12.60;6.70;;;;;;;7.33;28.96;101494.05;104813;1272;71695;-28
2022/03/20 09:26:57;;;;;;;29.80;9.40;;;;;;;7.31;29.14;101490.30;104820;1272;61151;-28
2022/03/20 09:29:27;;;;;;;8.60;5.00;;;;;;;7.49;30.50;101495.49;104944;1271;60962;-28
2022/03/20 09:32:04;;;;;;;7.90;5.00;;;;;;;7.60;29.61;101496.88;105069;1272;72998;-28
2022/03/20 09:34:35;;;;;;;9.80;6.20;;;;;;;7.51;29.75;101490.95;104823;1274;74627;-27
2022/03/20 09:37:05;;;;;;;10.80;6.30;;;;;;;7.72;29.83;101488.09;104739;1274;72901;-29
2022/03/20 09:41:08;;;;;;;13.20;6.10;;;;;;;8.41;28.78;101485.88;101719;1309;601161;-27
2022/03/20 09:43:41;;;;;;;6.90;4.30;;;;;;;7.83;28.84;101477.53;104033;1283;61068;-27
2022/03/20 09:46:15;;;;;;;7.10;4.20;;;;;;;7.78;28.49;101479.22;104304;1284;61077;-27
2022/03/20 09:48:48;;;;;;;9.00;5.40;;;;;;;8.14;28.57;101474.30;104409;1283;72462;-30
2022/03/20 09:51:18;;;;;;;8.40;5.60;;;;;;;8.56;28.58;101476.23;104369;1283;75539;-28
2022/03/20 09:53:48;;;;;;;6.50;3.90;;;;;;;8.43;27.66;101471.80;103778;1281;710636;-27
2022/03/20 09:56:18;;;;;;;7.10;4.90;;;;;;;7.83;27.96;101465.79;104243;1285;61103;-27
2022/03/20 09:58:48;;;;;;;10.60;5.70;;;;;;;8.18;27.65;101467.09;104481;1283;61099;-27
2022/03/20 10:01:21;;;;;;;7.60;4.70;;;;;;;8.36;27.46;101460.46;104480;1281;72537;-27
2022/03/20 10:04:11;;;;;;;8.70;5.80;;;;;;;8.65;27.85;101462.58;104481;1282;73473;-28
2022/03/20 10:06:43;;;;;;;9.90;5.70;;;;;;;8.28;27.22;101453.09;104433;1281;71444;-27
2022/03/20 10:09:13;;;;;;;7.40;5.60;;;;;;;8.57;27.33;101450.77;105143;1273;61101;-27
2022/03/20 10:11:48;;;;;;;6.40;4.40;;;;;;;8.53;27.32;101456.94;105285;1271;61152;-27
2022/03/20 10:14:21;;;;;;;8.60;4.70;;;;;;;8.82;26.94;101453.86;105273;1271;74277;-28
2022/03/20 10:17:06;;;;;;;9.90;4.80;;;;;;;8.51;27.15;101450.27;105175;1272;73869;-28
2022/03/20 10:19:36;;;;;;;12.80;4.50;;;;;;;8.99;26.54;101453.80;105134;1271;72972;-27
2022/03/20 10:22:11;;;;;;;8.70;4.80;;;;;;;9.68;25.43;101451.17;105166;1270;61151;-27
2022/03/20 10:24:51;;;;;;;7.50;4.70;;;;;;;9.08;25.79;101442.02;105236;1271;61044;-28
2022/03/20 10:27:22;;;;;;;8.50;5.20;;;;;;;9.08;26.79;101443.94;105288;1271;73338;-27
2022/03/20 10:29:54;;;;;;;8.30;5.90;;;;;;;9.02;26.25;101441.38;105148;1271;74401;-27
2022/03/20 10:32:24;;;;;;;6.60;4.30;;;;;;;9.27;26.55;101445.31;104786;1272;70927;-27
2022/03/20 10:34:56;;;;;;;7.80;5.10;;;;;;;9.32;26.43;101441.98;105084;1271;61103;-27
2022/03/20 10:37:47;;;;;;;7.10;4.20;;;;;;;9.13;26.28;101438.54;105145;1271;61135;-27
2022/03/20 10:40:28;;;;;;;7.70;4.60;;;;;;;9.17;26.92;101441.52;105062;1271;73390;-28
2022/03/20 10:43:11;;;;;;;13.90;5.60;;;;;;;9.23;26.15;101435.39;104948;1273;73100;-27
2022/03/20 10:46:00;;;;;;;7.60;4.90;;;;;;;9.01;26.14;101441.59;105041;1274;72893;-28
2022/03/20 10:48:42;;;;;;;8.10;4.30;;;;;;;9.62;25.37;101431.84;105102;1273;61099;-27
2022/03/20 10:51:45;;;;;;;7.30;4.80;;;;;;;9.82;24.88;101427.20;104928;1274;61137;-27
2022/03/20 10:54:21;;;;;;;7.70;5.00;;;;;;;10.08;25.53;101420.77;105049;1273;74265;-27
2022/03/20 10:56:54;;;;;;;5.50;3.00;;;;;;;9.63;25.73;101418.96;104818;1273;76862;-28
2022/03/20 10:59:27;;;;;;;6.50;3.90;;;;;;;9.68;26.15;101416.67;104741;1275;73008;-27
2022/03/20 11:02:01;;;;;;;9.00;4.80;;;;;;;9.70;25.34;101419.71;105028;1274;61188;-28
2022/03/20 11:04:32;;;;;;;9.10;5.40;;;;;;;9.50;25.82;101415.98;104617;1275;61122;-28
2022/03/20 11:07:07;;;;;;;10.20;4.70;;;;;;;9.76;25.49;101411.33;104776;1274;73939;-28
2022/03/20 11:09:38;;;;;;;6.30;4.00;;;;;;;10.17;25.34;101405.83;104871;1273;74496;-27
2022/03/20 11:12:33;;;;;;;8.20;5.40;;;;;;;9.74;25.38;101398.77;104680;1274;72074;-27
2022/03/20 11:15:04;;;;;;;8.40;4.70;;;;;;;9.24;26.06;101401.58;104673;1273;61014;-28
2022/03/20 11:17:43;;;;;;;6.90;4.10;;;;;;;9.50;25.46;101404.23;104712;1273;61203;-28
2022/03/20 11:20:16;;;;;;;7.80;3.90;;;;;;;9.24;25.31;101396.16;104695;1274;73243;-29
2022/03/20 11:22:54;;;;;;;6.50;3.40;;;;;;;9.59;25.37;101393.45;104663;1273;74449;-28
2022/03/20 11:25:25;;;;;;;16.20;4.00;;;;;;;9.47;25.98;101389.04;104639;1274;72146;-29
2022/03/20 11:28:01;;;;;;;9.00;4.20;;;;;;;9.41;26.00;101387.73;104777;1273;61214;-29
2022/03/20 11:30:36;;;;;;;7.90;3.70;;;;;;;9.17;25.55;101385.73;104673;1274;61053;-27
2022/03/20 11:33:09;;;;;;;6.40;3.60;;;;;;;8.58;25.61;101382.48;104614;1274;73233;-29
2022/03/20 11:35:53;;;;;;;9.20;4.20;;;;;;;9.01;25.87;101376.24;104740;1274;74245;-27
2022/03/20 11:38:24;;;;;;;6.20;3.90;;;;;;;9.03;26.19;101374.80;105120;1274;71593;-30
2022/03/20 11:41:05;;;;;;;9.10;4.30;;;;;;;8.98;26.03;101368.39;104752;1274;61144;-27
2022/03/20 11:43:39;;;;;;;5.10;3.40;;;;;;;9.27;25.68;101360.89;104656;1274;61059;-27
2022/03/20 11:46:32;;;;;;;7.70;3.50;;;;;;;9.15;25.64;101363.44;104636;1274;72241;-29
2022/03/20 11:49:17;;;;;;;8.70;4.20;;;;;;;9.14;25.56;101359.33;104744;1274;73322;-28
2022/03/20 11:51:55;;;;;;;17.60;4.10;;;;;;;9.32;26.06;101359.30;105062;1272;72936;-27
2022/03/20 11:54:41;;;;;;;6.80;3.40;;;;;;;9.18;25.73;101357.45;104835;1274;61087;-28
2022/03/20 11:57:24;;;;;;;6.80;4.00;;;;;;;9.06;25.99;101352.31;104709;1274;61147;-28
2022/03/20 11:59:57;;;;;;;6.40;3.20;;;;;;;9.02;25.98;101351.78;104684;1274;73326;-29
2022/03/20 12:02:34;;;;;;;6.20;3.30;;;;;;;8.71;26.12;101351.91;104640;1274;75606;-28
2022/03/20 12:05:21;;;;;;;5.50;3.50;;;;;;;8.59;26.16;101347.48;104677;1273;72893;-28
2022/03/20 12:08:27;;;;;;;6.30;3.20;;;;;;;8.73;26.04;101337.45;104591;1274;61158;-29
2022/03/20 12:11:05;;;;;;;30.80;3.90;;;;;;;8.68;26.72;101341.27;104405;1274;61114;-29
2022/03/20 12:14:07;;;;;;;3.50;2.40;;;;;;;8.72;26.40;101334.75;104672;1273;73169;-30